Time;durP1;ratioP1;P1;durP2;ratioP2;P2;SDS_P1;SDS_P2;PMS_P1;PMS_P2;Temp;Humidity;BMP_temperature;BMP_pressure;BME280_temperature;BME280_humidity;BME280_pressure;Samples;Min_cycle;Max_cycle;Signal;HPM_P1;HPM_P2
2023/12/28 05:56:22;;;;;;;;;;;28.70;55.50;;;;;;5111054;23;19927;-43
2023/12/28 05:58:44;;;;;;;;;;;28.40;55.50;;;;;;5111830;23;19935;-45
2023/12/28 06:01:06;;;;;;;;;;;28.20;55.00;;;;;;5111851;23;19919;-46
2023/12/28 06:03:29;;;;;;;;;;;28.10;55.10;;;;;;5111192;23;19935;-47
2023/12/28 06:05:50;;;;;;;;;;;27.90;54.90;;;;;;5102743;23;19931;-51
2023/12/28 06:08:13;;;;;;;;;;;27.80;54.30;;;;;;5110769;23;19986;-44
2023/12/28 06:10:35;;;;;;;;;;;27.70;54.10;;;;;;5104393;23;19919;-48
2023/12/28 06:12:57;;;;;;;;;;;27.50;54.60;;;;;;5105555;23;19915;-45
2023/12/28 06:15:19;;;;;;;;;;;27.40;53.70;;;;;;5105671;23;19920;-45
2023/12/28 06:17:40;;;;;;;;;;;27.30;54.10;;;;;;5106588;23;19908;-45
2023/12/28 06:20:02;;;;;;;;;;;27.20;54.20;;;;;;5106090;23;19904;-45
2023/12/28 06:22:27;;;;;;;;;;;27.10;54.30;;;;;;5105789;23;19961;-48
2023/12/28 06:24:49;;;;;;;;;;;27.00;53.70;;;;;;5104401;23;19908;-49
2023/12/28 06:27:10;;;;;;;;;;;26.90;54.20;;;;;;5106798;23;20014;-51
2023/12/28 06:29:32;;;;;;;;;;;26.80;54.00;;;;;;5105051;23;20493;-49
2023/12/28 06:31:54;;;;;;;;;;;26.70;54.50;;;;;;5104828;23;19927;-47
2023/12/28 06:34:16;;;;;;;;;;;26.60;54.70;;;;;;5103485;23;19962;-47
2023/12/28 06:36:38;;;;;;;;;;;26.50;54.20;;;;;;5105231;23;19908;-50
2023/12/28 06:39:00;;;;;;;;;;;26.40;53.60;;;;;;5104481;23;19912;-48
2023/12/28 06:41:22;;;;;;;;;;;26.30;54.30;;;;;;5101246;23;19908;-44
2023/12/28 06:43:44;;;;;;;;;;;26.30;54.30;;;;;;5096519;23;20061;-46
2023/12/28 06:46:05;;;;;;;;;;;26.20;54.60;;;;;;5103847;23;19926;-47
2023/12/28 06:48:27;;;;;;;;;;;26.10;54.10;;;;;;5105063;23;20380;-53
2023/12/28 06:50:49;;;;;;;;;;;26.00;53.80;;;;;;5077284;23;19915;-49
2023/12/28 06:53:11;;;;;;;;;;;26.00;54.30;;;;;;5109473;23;19926;-51
2023/12/28 06:55:34;;;;;;;;;;;25.90;53.40;;;;;;5134735;23;19915;-44
2023/12/28 06:57:56;;;;;;;;;;;25.80;54.30;;;;;;5129587;23;20223;-51
2023/12/28 07:00:18;;;;;;;;;;;25.70;53.90;;;;;;5131356;23;19987;-49
2023/12/28 07:02:39;;;;;;;;;;;25.60;54.10;;;;;;5144061;23;20383;-51
2023/12/28 07:05:01;;;;;;;;;;;25.60;54.00;;;;;;5145149;23;19912;-48
2023/12/28 07:07:23;;;;;;;;;;;25.60;54.20;;;;;;5145546;23;19912;-47
2023/12/28 07:09:45;;;;;;;;;;;25.60;53.50;;;;;;5145218;23;19907;-47
2023/12/28 07:12:07;;;;;;;;;;;25.70;52.80;;;;;;5137388;23;19903;-46
2023/12/28 07:14:29;;;;;;;;;;;25.90;53.10;;;;;;5143655;23;20203;-46
2023/12/28 07:16:50;;;;;;;;;;;26.00;53.20;;;;;;5144572;23;19904;-48
2023/12/28 07:19:12;;;;;;;;;;;26.10;53.30;;;;;;5145820;23;19904;-46
2023/12/28 07:21:34;;;;;;;;;;;26.20;53.40;;;;;;5145538;23;19903;-46
2023/12/28 07:23:56;;;;;;;;;;;26.30;53.60;;;;;;5144440;23;19908;-50
2023/12/28 07:26:18;;;;;;;;;;;26.40;53.80;;;;;;5144477;23;19916;-46
2023/12/28 07:28:42;;;;;;;;;;;26.50;53.90;;;;;;5115040;23;19980;-46
2023/12/28 07:31:04;;;;;;;;;;;26.50;54.00;;;;;;5136530;23;19904;-46
2023/12/28 07:33:26;;;;;;;;;;;26.60;54.20;;;;;;5144202;23;20302;-46
2023/12/28 07:35:48;;;;;;;;;;;26.70;54.50;;;;;;5131852;23;19903;-47
2023/12/28 07:38:10;;;;;;;;;;;26.70;55.10;;;;;;5141334;23;19935;-49
2023/12/28 07:40:32;;;;;;;;;;;26.80;55.30;;;;;;5146133;23;19966;-52
2023/12/28 07:42:54;;;;;;;;;;;26.90;55.50;;;;;;5146372;23;19904;-49
2023/12/28 07:45:17;;;;;;;;;;;27.00;55.80;;;;;;5141597;23;19908;-47
2023/12/28 07:47:39;;;;;;;;;;;27.10;56.00;;;;;;5142019;23;20262;-49
2023/12/28 07:50:00;;;;;;;;;;;27.20;56.40;;;;;;5135380;23;19908;-49
2023/12/28 07:52:22;;;;;;;;;;;27.20;56.50;;;;;;5135270;23;19935;-48
2023/12/28 07:54:44;;;;;;;;;;;27.30;56.80;;;;;;5133704;23;19915;-48
2023/12/28 07:57:06;;;;;;;;;;;27.30;56.70;;;;;;5135329;23;20378;-50
2023/12/28 07:59:28;;;;;;;;;;;27.40;56.80;;;;;;5130131;23;19910;-50
2023/12/28 08:01:50;;;;;;;;;;;27.40;57.00;;;;;;5136417;23;20278;-50
2023/12/28 08:04:11;;;;;;;;;;;27.50;57.20;;;;;;5134690;23;19915;-45
2023/12/28 08:06:33;;;;;;;;;;;27.50;57.30;;;;;;5135963;23;19916;-52
2023/12/28 08:08:55;;;;;;;;;;;27.60;57.30;;;;;;5138643;23;19918;-52
2023/12/28 08:11:17;;;;;;;;;;;27.60;57.40;;;;;;5132922;23;19908;-52
2023/12/28 08:13:39;;;;;;;;;;;27.70;57.50;;;;;;5135116;23;19939;-46
2023/12/28 08:16:00;;;;;;;;;;;27.70;57.90;;;;;;5133886;23;20434;-46
2023/12/28 08:18:22;;;;;;;;;;;27.80;58.00;;;;;;5137444;23;19907;-52
2023/12/28 08:20:44;;;;;;;;;;;27.80;58.20;;;;;;5135797;23;19989;-51
2023/12/28 08:23:06;;;;;;;;;;;27.80;58.20;;;;;;5134079;23;20152;-49
2023/12/28 08:25:28;;;;;;;;;;;27.80;58.40;;;;;;5135983;23;19915;-49
2023/12/28 08:27:50;;;;;;;;;;;27.80;58.60;;;;;;5133003;23;19935;-52
2023/12/28 08:30:12;;;;;;;;;;;27.90;58.70;;;;;;5134468;23;19907;-48
2023/12/28 08:32:34;;;;;;;;;;;27.90;58.60;;;;;;5133525;23;20321;-45
2023/12/28 08:34:55;;;;;;;;;;;27.90;58.60;;;;;;5129643;23;19912;-52
2023/12/28 08:37:17;;;;;;;;;;;27.90;59.00;;;;;;5129055;23;20311;-48
2023/12/28 08:39:41;;;;;;;;;;;27.80;59.10;;;;;;5137126;23;19962;-45
2023/12/28 08:42:03;;;;;;;;;;;27.80;59.20;;;;;;5136280;23;20326;-52
2023/12/28 08:44:25;;;;;;;;;;;27.80;59.30;;;;;;5127330;23;19923;-47
2023/12/28 08:46:47;;;;;;;;;;;27.80;59.50;;;;;;5134780;23;19916;-50
2023/12/28 08:49:08;;;;;;;;;;;27.80;59.80;;;;;;5124859;23;19908;-49
2023/12/28 08:51:30;;;;;;;;;;;27.80;60.20;;;;;;5135991;23;19907;-49
2023/12/28 08:53:52;;;;;;;;;;;27.80;60.50;;;;;;5136549;23;19904;-50
2023/12/28 08:56:16;;;;;;;;;;;27.80;57.80;;;;;;5123252;23;19916;-45
2023/12/28 08:58:38;;;;;;;;;;;27.50;56.50;;;;;;5127267;23;19973;-50
2023/12/28 09:01:00;;;;;;;;;;;27.30;55.80;;;;;;5112220;23;19908;-47
2023/12/28 09:03:22;;;;;;;;;;;27.00;55.70;;;;;;5135140;23;20335;-48
2023/12/28 09:05:44;;;;;;;;;;;26.90;54.90;;;;;;5104341;23;19982;-44
2023/12/28 09:08:06;;;;;;;;;;;26.70;55.40;;;;;;5134789;23;20372;-46
2023/12/28 09:10:27;;;;;;;;;;;26.60;54.70;;;;;;5135437;23;19904;-43
2023/12/28 09:12:49;;;;;;;;;;;26.50;55.60;;;;;;5135346;23;19908;-45
2023/12/28 09:15:12;;;;;;;;;;;26.40;55.50;;;;;;5135589;23;19908;-47
2023/12/28 09:17:34;;;;;;;;;;;26.30;54.70;;;;;;5104123;23;19969;-47
2023/12/28 09:19:57;;;;;;;;;;;26.10;54.80;;;;;;5135876;23;19911;-44
2023/12/28 09:22:19;;;;;;;;;;;26.00;53.50;;;;;;5127470;23;19931;-45
2023/12/28 09:24:41;;;;;;;;;;;25.90;55.00;;;;;;5132484;23;19946;-43
2023/12/28 09:27:03;;;;;;;;;;;25.80;54.50;;;;;;5132354;23;20287;-47
2023/12/28 09:29:25;;;;;;;;;;;25.70;54.70;;;;;;5133919;23;19922;-47
2023/12/28 09:31:47;;;;;;;;;;;25.60;54.50;;;;;;5125511;23;19903;-48
2023/12/28 09:34:09;;;;;;;;;;;25.50;54.60;;;;;;5122697;23;20269;-43
2023/12/28 09:36:31;;;;;;;;;;;25.40;54.00;;;;;;5134958;23;19994;-50
2023/12/28 09:38:53;;;;;;;;;;;25.30;52.70;;;;;;5135262;23;19966;-47
2023/12/28 09:41:16;;;;;;;;;;;25.20;53.40;;;;;;5133305;23;19908;-49
2023/12/28 09:43:41;;;;;;;;;;;25.10;54.80;;;;;;5136977;23;20355;-49
2023/12/28 09:46:07;;;;;;;;;;;25.00;54.30;;;;;;5134294;23;19908;-47
2023/12/28 09:48:30;;;;;;;;;;;24.90;54.50;;;;;;5128362;23;19918;-45
2023/12/28 09:50:55;;;;;;;;;;;24.80;54.20;;;;;;5134714;23;20334;-43
2023/12/28 09:53:16;;;;;;;;;;;24.70;54.00;;;;;;5135344;23;20350;-45
2023/12/28 09:55:38;;;;;;;;;;;24.60;54.20;;;;;;5135546;23;20406;-48
2023/12/28 09:58:00;;;;;;;;;;;24.50;54.20;;;;;;5136877;23;19957;-45
2023/12/28 10:00:22;;;;;;;;;;;24.50;55.20;;;;;;5133908;23;19908;-46
2023/12/28 10:02:45;;;;;;;;;;;24.50;55.80;;;;;;5135414;23;20368;-48
2023/12/28 10:05:07;;;;;;;;;;;24.50;56.30;;;;;;5137848;23;19953;-44
2023/12/28 10:07:29;;;;;;;;;;;24.50;56.30;;;;;;5136068;23;19916;-50
2023/12/28 10:09:50;;;;;;;;;;;24.60;56.50;;;;;;5137684;23;19915;-44
2023/12/28 10:12:12;;;;;;;;;;;24.60;59.40;;;;;;5135010;23;19907;-45
2023/12/28 10:14:35;;;;;;;;;;;24.70;59.10;;;;;;5136340;23;19908;-46
2023/12/28 10:16:57;;;;;;;;;;;24.70;59.40;;;;;;5128267;23;19935;-47
2023/12/28 10:19:23;;;;;;;;;;;24.80;59.90;;;;;;5135158;23;19939;-43
2023/12/28 10:21:45;;;;;;;;;;;24.90;60.00;;;;;;5128405;23;19912;-48
2023/12/28 10:24:07;;;;;;;;;;;25.00;60.20;;;;;;5135444;23;19982;-48
2023/12/28 10:26:29;;;;;;;;;;;25.10;60.30;;;;;;5136363;23;19916;-43
2023/12/28 10:28:50;;;;;;;;;;;25.10;60.40;;;;;;5137290;23;19908;-43
2023/12/28 10:31:12;;;;;;;;;;;25.20;60.40;;;;;;5136032;23;20237;-44
2023/12/28 10:33:37;;;;;;;;;;;25.30;60.50;;;;;;5139186;23;19942;-44
2023/12/28 10:35:59;;;;;;;;;;;25.30;60.50;;;;;;5137730;23;19940;-42
2023/12/28 10:38:21;;;;;;;;;;;25.40;60.50;;;;;;5137744;23;19910;-46
2023/12/28 10:40:48;;;;;;;;;;;25.40;60.40;;;;;;5137018;23;19914;-46
2023/12/28 10:43:11;;;;;;;;;;;25.50;60.70;;;;;;5137897;23;20378;-43
2023/12/28 10:45:36;;;;;;;;;;;25.50;60.70;;;;;;5136009;23;20182;-42
2023/12/28 10:48:11;;;;;;;;;;;25.60;60.60;;;;;;5129271;23;19990;-44
2023/12/28 10:50:39;;;;;;;;;;;25.60;60.60;;;;;;5137755;23;20352;-44
2023/12/28 10:53:05;;;;;;;;;;;25.70;60.80;;;;;;5130654;23;19911;-47
2023/12/28 10:55:33;;;;;;;;;;;25.70;60.80;;;;;;5128276;23;19911;-46
2023/12/28 10:58:16;;;;;;;;;;;25.80;60.90;;;;;;5137777;23;19990;-43
2023/12/28 11:00:42;;;;;;;;;;;25.80;61.00;;;;;;5136846;23;20413;-45
2023/12/28 11:03:06;;;;;;;;;;;25.90;61.00;;;;;;5138084;23;19950;-43
2023/12/28 11:05:29;;;;;;;;;;;25.90;60.90;;;;;;5137050;23;19984;-45
2023/12/28 11:07:56;;;;;;;;;;;25.90;60.90;;;;;;5132205;23;19921;-44
2023/12/28 11:10:19;;;;;;;;;;;26.00;61.00;;;;;;5134738;23;20285;-43
2023/12/28 11:12:41;;;;;;;;;;;26.00;61.10;;;;;;5142340;23;19914;-46
2023/12/28 11:15:05;;;;;;;;;;;26.10;61.10;;;;;;5134959;23;19908;-42
2023/12/28 11:17:26;;;;;;;;;;;26.10;61.10;;;;;;5145989;23;19915;-47
2023/12/28 11:19:49;;;;;;;;;;;26.10;61.20;;;;;;5143604;23;20305;-44
2023/12/28 11:22:11;;;;;;;;;;;26.10;61.30;;;;;;5139443;23;19904;-44
2023/12/28 11:24:34;;;;;;;;;;;26.10;61.30;;;;;;5146233;23;20301;-46
2023/12/28 11:26:56;;;;;;;;;;;26.10;61.30;;;;;;5145967;23;19923;-43
2023/12/28 11:29:19;;;;;;;;;;;26.20;61.40;;;;;;5138654;23;19908;-42
2023/12/28 11:31:41;;;;;;;;;;;26.20;61.40;;;;;;5146372;23;20319;-43
2023/12/28 11:34:10;;;;;;;;;;;26.20;61.40;;;;;;5146506;23;20233;-41
2023/12/28 11:36:36;;;;;;;;;;;26.30;61.50;;;;;;5138795;23;19904;-44
2023/12/28 11:39:01;;;;;;;;;;;26.30;61.50;;;;;;5140228;23;19903;-45
2023/12/28 11:41:24;;;;;;;;;;;26.30;61.40;;;;;;5148233;23;19908;-45
2023/12/28 11:43:52;;;;;;;;;;;26.30;61.50;;;;;;5147774;23;19904;-45
2023/12/28 11:46:14;;;;;;;;;;;26.40;61.70;;;;;;5144327;23;20310;-43
2023/12/28 11:48:36;;;;;;;;;;;26.40;61.80;;;;;;5145646;23;19911;-47
2023/12/28 11:50:59;;;;;;;;;;;26.40;61.90;;;;;;5136035;23;20359;-41
2023/12/28 11:53:21;;;;;;;;;;;26.50;62.00;;;;;;5144569;23;20330;-51
2023/12/28 11:55:43;;;;;;;;;;;26.50;62.00;;;;;;5144046;23;20375;-51
2023/12/28 11:58:05;;;;;;;;;;;26.50;62.00;;;;;;5138988;23;19908;-46
2023/12/28 12:00:27;;;;;;;;;;;26.50;62.00;;;;;;5144186;23;19962;-46
2023/12/28 12:02:49;;;;;;;;;;;26.40;62.00;;;;;;5137026;23;19911;-45
2023/12/28 12:05:12;;;;;;;;;;;26.50;62.10;;;;;;5145468;23;19904;-42
2023/12/28 12:07:34;;;;;;;;;;;26.50;62.10;;;;;;5145124;23;19916;-43
2023/12/28 12:09:57;;;;;;;;;;;26.50;62.10;;;;;;5143683;23;19915;-45
2023/12/28 12:12:19;;;;;;;;;;;26.50;62.00;;;;;;5144439;23;20002;-45
2023/12/28 12:14:41;;;;;;;;;;;26.50;62.00;;;;;;5144463;23;19908;-42
2023/12/28 12:17:03;;;;;;;;;;;26.50;62.00;;;;;;5144588;23;19911;-46
2023/12/28 12:19:25;;;;;;;;;;;26.50;62.00;;;;;;5145453;23;19915;-44
2023/12/28 12:21:48;;;;;;;;;;;26.60;62.00;;;;;;5135712;23;19904;-44
2023/12/28 12:24:10;;;;;;;;;;;26.60;62.00;;;;;;5145652;23;19911;-44
2023/12/28 12:26:32;;;;;;;;;;;26.50;61.90;;;;;;5145300;23;19958;-43
2023/12/28 12:28:54;;;;;;;;;;;26.60;62.00;;;;;;5136353;23;19904;-44
2023/12/28 12:31:16;;;;;;;;;;;26.60;62.10;;;;;;5143943;23;19935;-43
2023/12/28 12:33:39;;;;;;;;;;;26.60;62.10;;;;;;5143792;23;19903;-41
2023/12/28 12:36:02;;;;;;;;;;;26.60;62.10;;;;;;5142892;23;19908;-43
2023/12/28 12:38:24;;;;;;;;;;;26.60;62.10;;;;;;5136513;23;19934;-41
2023/12/28 12:40:46;;;;;;;;;;;26.60;62.10;;;;;;5136071;23;20645;-45
2023/12/28 12:43:11;;;;;;;;;;;26.70;62.30;;;;;;5144696;23;19978;-42
2023/12/28 12:45:33;;;;;;;;;;;26.60;62.10;;;;;;5143397;23;20402;-47
2023/12/28 12:47:54;;;;;;;;;;;26.70;62.20;;;;;;5145574;23;19919;-44
2023/12/28 12:50:16;;;;;;;;;;;26.60;62.00;;;;;;5142290;23;19908;-41
2023/12/28 12:52:38;;;;;;;;;;;26.70;62.20;;;;;;5135214;23;20061;-43
2023/12/28 12:55:01;;;;;;;;;;;26.70;62.20;;;;;;5143641;23;19919;-41
2023/12/28 12:57:23;;;;;;;;;;;26.70;62.20;;;;;;5147243;23;19903;-42
2023/12/28 12:59:45;;;;;;;;;;;26.70;62.20;;;;;;5142684;23;19912;-43
2023/12/28 13:02:08;;;;;;;;;;;26.70;62.20;;;;;;5142845;23;19986;-43
2023/12/28 13:04:30;;;;;;;;;;;26.70;62.20;;;;;;5137878;23;19903;-41
2023/12/28 13:06:51;;;;;;;;;;;26.70;62.20;;;;;;5144087;23;19916;-45
2023/12/28 13:09:13;;;;;;;;;;;26.70;62.20;;;;;;5146039;23;19904;-49
2023/12/28 13:11:35;;;;;;;;;;;26.70;62.30;;;;;;5142565;23;20254;-44
2023/12/28 13:13:57;;;;;;;;;;;26.70;62.40;;;;;;5145297;23;19904;-47
2023/12/28 13:16:19;;;;;;;;;;;26.70;62.50;;;;;;5135077;23;19962;-44
2023/12/28 13:18:41;;;;;;;;;;;26.80;62.40;;;;;;5144967;23;20341;-43
2023/12/28 13:21:03;;;;;;;;;;;26.70;62.40;;;;;;5146125;23;20243;-45
2023/12/28 13:23:25;;;;;;;;;;;26.80;62.40;;;;;;5144337;23;20377;-44
2023/12/28 13:25:46;;;;;;;;;;;26.80;62.40;;;;;;5137398;23;19904;-42
2023/12/28 13:28:09;;;;;;;;;;;26.80;62.30;;;;;;5144372;23;19963;-44
2023/12/28 13:30:31;;;;;;;;;;;26.80;62.20;;;;;;5142790;23;19907;-45
2023/12/28 13:32:53;;;;;;;;;;;26.80;62.20;;;;;;5136059;23;20278;-44
2023/12/28 13:35:15;;;;;;;;;;;26.80;62.30;;;;;;5145514;23;19950;-48
2023/12/28 13:37:37;;;;;;;;;;;26.80;62.40;;;;;;5145592;23;20053;-43
2023/12/28 13:39:59;;;;;;;;;;;26.80;62.40;;;;;;5145383;23;19903;-46
2023/12/28 13:42:20;;;;;;;;;;;26.90;62.40;;;;;;5144456;23;19930;-45
2023/12/28 13:44:43;;;;;;;;;;;26.80;62.90;;;;;;5144774;23;19931;-41
2023/12/28 13:47:08;;;;;;;;;;;26.90;63.00;;;;;;5136399;23;19922;-41
2023/12/28 13:49:30;;;;;;;;;;;26.80;62.30;;;;;;5137578;23;19908;-44
2023/12/28 13:51:52;;;;;;;;;;;26.80;62.20;;;;;;5143713;23;20385;-42
2023/12/28 13:54:14;;;;;;;;;;;26.80;62.20;;;;;;5144231;23;19908;-43
2023/12/28 13:56:36;;;;;;;;;;;26.80;62.30;;;;;;5135248;23;20342;-41
2023/12/28 13:58:57;;;;;;;;;;;26.80;62.30;;;;;;5145319;23;20325;-43
2023/12/28 14:01:19;;;;;;;;;;;26.80;62.30;;;;;;5143968;23;19973;-45
2023/12/28 14:03:41;;;;;;;;;;;26.70;62.30;;;;;;5146320;23;19958;-43
2023/12/28 14:06:03;;;;;;;;;;;26.70;62.30;;;;;;5137423;23;20319;-40
2023/12/28 14:08:25;;;;;;;;;;;26.80;62.40;;;;;;5146249;23;19915;-44
2023/12/28 14:10:47;;;;;;;;;;;26.70;62.40;;;;;;5145964;23;19911;-44
2023/12/28 14:13:09;;;;;;;;;;;26.70;62.60;;;;;;5145705;23;19904;-43
2023/12/28 14:15:30;;;;;;;;;;;26.80;62.70;;;;;;5146319;23;19908;-43
2023/12/28 14:17:52;;;;;;;;;;;26.80;62.80;;;;;;5147077;23;19939;-43
2023/12/28 14:20:14;;;;;;;;;;;26.80;62.80;;;;;;5139776;23;19904;-42
2023/12/28 14:22:36;;;;;;;;;;;26.80;62.80;;;;;;5146338;23;19910;-45
2023/12/28 14:24:58;;;;;;;;;;;26.80;62.70;;;;;;5147230;23;20292;-47
2023/12/28 14:27:21;;;;;;;;;;;26.80;62.80;;;;;;5138768;23;19915;-44
2023/12/28 14:29:43;;;;;;;;;;;26.80;62.80;;;;;;5116177;23;19911;-41
2023/12/28 14:32:05;;;;;;;;;;;26.80;63.30;;;;;;5145534;23;20025;-43
2023/12/28 14:34:27;;;;;;;;;;;26.80;62.70;;;;;;5146046;23;19904;-44
2023/12/28 14:36:50;;;;;;;;;;;26.80;62.70;;;;;;5145034;23;19904;-45
2023/12/28 14:39:12;;;;;;;;;;;26.80;62.80;;;;;;5144777;23;20437;-41
2023/12/28 14:41:34;;;;;;;;;;;26.80;63.00;;;;;;5145602;23;20103;-44
2023/12/28 14:43:59;;;;;;;;;;;26.80;63.00;;;;;;5144553;23;20314;-43
2023/12/28 14:46:20;;;;;;;;;;;26.90;63.00;;;;;;5144720;23;19912;-44
2023/12/28 14:48:42;;;;;;;;;;;26.90;62.90;;;;;;5144437;23;19908;-46
